Time;durP1;ratioP1;P1;durP2;ratioP2;P2;SDS_P1;SDS_P2;PMS_P1;PMS_P2;Temp;Humidity;BMP_temperature;BMP_pressure;BME280_temperature;BME280_humidity;BME280_pressure;Samples;Min_cycle;Max_cycle;Signal;HPM_P1;HPM_P2
2021/08/02 00:00:58;;;;;;;7.32;3.50;;;;;;;13.17;80.84;99010.75;5066139;28;20433;-69
2021/08/02 00:03:35;;;;;;;10.55;3.53;;;;;;;13.25;80.59;99013.88;5064872;28;20025;-69
2021/08/02 00:06:02;;;;;;;11.82;4.05;;;;;;;13.30;80.30;99011.09;5066197;28;20088;-68
2021/08/02 00:08:28;;;;;;;11.73;3.80;;;;;;;13.36;80.39;99016.03;5065994;28;20028;-70
2021/08/02 00:10:58;;;;;;;16.20;4.18;;;;;;;13.39;80.61;99015.03;5065927;28;20034;-70
2021/08/02 00:13:33;;;;;;;10.90;3.25;;;;;;;13.42;80.71;99007.09;5065941;28;20481;-70
2021/08/02 00:16:08;;;;;;;12.90;4.30;;;;;;;13.44;80.52;99013.09;5065755;28;20092;-69
2021/08/02 00:18:34;;;;;;;9.65;3.53;;;;;;;13.48;80.12;99006.81;5065541;28;20017;-70
2021/08/02 00:21:05;;;;;;;11.20;3.78;;;;;;;13.48;80.25;99008.59;5065671;28;20138;-71
2021/08/02 00:23:31;;;;;;;8.85;3.30;;;;;;;13.54;80.25;99008.38;5065550;28;20032;-70
2021/08/02 00:26:00;;;;;;;13.35;3.83;;;;;;;13.56;80.16;99003.91;5065692;28;20115;-70
2021/08/02 00:28:27;;;;;;;12.35;3.75;;;;;;;13.60;80.08;99002.88;5065503;28;20041;-69
2021/08/02 00:30:54;;;;;;;18.08;3.50;;;;;;;13.61;80.21;98998.53;5065522;28;20650;-70
2021/08/02 00:33:19;;;;;;;9.20;3.60;;;;;;;13.63;80.07;98996.69;5064471;28;20036;-70
2021/08/02 00:36:01;;;;;;;16.45;4.85;;;;;;;13.63;79.95;99002.75;5065391;28;20021;-69
2021/08/02 00:38:34;;;;;;;10.43;3.65;;;;;;;13.61;79.90;98993.31;5065266;28;20028;-70
2021/08/02 00:41:11;;;;;;;7.53;3.13;;;;;;;13.54;80.03;98990.13;5064261;28;20040;-70
2021/08/02 00:43:55;;;;;;;11.93;3.55;;;;;;;13.50;79.82;98988.50;5065372;28;20031;-70
2021/08/02 00:46:31;;;;;;;14.65;4.38;;;;;;;13.44;80.08;98996.59;5065437;28;20028;-70
2021/08/02 00:49:08;;;;;;;11.65;4.15;;;;;;;13.41;80.02;98987.16;5065163;28;20024;-70
2021/08/02 00:51:37;;;;;;;13.50;4.07;;;;;;;13.35;80.24;98993.50;5064938;28;20024;-70
2021/08/02 00:54:04;;;;;;;17.17;3.35;;;;;;;13.32;80.30;98998.00;5065101;28;20450;-70
2021/08/02 00:56:33;;;;;;;10.48;3.65;;;;;;;13.26;80.39;98993.88;5065111;28;20064;-70
2021/08/02 00:59:04;;;;;;;12.52;3.25;;;;;;;13.22;80.64;98990.56;5063752;28;20021;-70
2021/08/02 01:01:33;;;;;;;8.23;3.35;;;;;;;13.19;81.08;98988.09;5064940;28;20074;-71
2021/08/02 01:04:00;;;;;;;11.90;3.63;;;;;;;13.14;81.19;98987.44;5063457;28;20029;-70
2021/08/02 01:06:29;;;;;;;8.05;2.83;;;;;;;13.08;81.34;98985.91;5064787;28;20089;-70
2021/08/02 01:08:55;;;;;;;14.07;3.75;;;;;;;13.03;81.60;98985.28;5064743;28;20017;-69
2021/08/02 01:11:22;;;;;;;14.23;3.53;;;;;;;13.02;81.82;98991.38;5064744;28;20051;-70
2021/08/02 01:13:49;;;;;;;18.17;3.70;;;;;;;12.97;82.00;98988.13;5064494;28;20013;-70
2021/08/02 01:16:15;;;;;;;10.23;4.07;;;;;;;12.97;82.01;98988.13;5064681;28;20051;-70
2021/08/02 01:18:41;;;;;;;10.52;3.00;;;;;;;12.94;82.21;98975.25;5063117;28;20049;-70
2021/08/02 01:21:11;;;;;;;15.15;3.88;;;;;;;12.94;82.37;98983.06;5064702;28;20055;-70
2021/08/02 01:23:38;;;;;;;10.93;4.03;;;;;;;12.95;82.46;98979.53;5064733;28;20108;-69
2021/08/02 01:26:03;;;;;;;8.40;2.90;;;;;;;12.96;82.52;98987.28;5064545;28;20055;-70
2021/08/02 01:28:31;;;;;;;11.13;3.03;;;;;;;12.96;82.67;98986.41;5064544;28;20462;-71
2021/08/02 01:30:59;;;;;;;7.53;3.10;;;;;;;12.93;82.64;98981.34;5064142;28;20047;-69
2021/08/02 01:33:30;;;;;;;11.65;2.97;;;;;;;12.97;82.66;98983.75;5064236;28;20036;-69
2021/08/02 01:36:03;;;;;;;8.80;3.83;;;;;;;12.95;82.85;98979.53;5064306;28;20029;-70
2021/08/02 01:38:31;;;;;;;9.82;3.08;;;;;;;12.96;83.02;98976.84;5062917;28;20029;-71
2021/08/02 01:40:57;;;;;;;13.35;3.30;;;;;;;13.01;82.88;98982.72;5064482;28;20017;-71
2021/08/02 01:43:23;;;;;;;10.27;4.32;;;;;;;12.99;82.93;98978.47;5063648;28;20529;-70
2021/08/02 01:46:07;;;;;;;9.70;3.47;;;;;;;13.05;82.76;98986.03;5064150;28;20029;-71
2021/08/02 01:49:27;;;;;;;14.93;3.97;;;;;;;13.12;82.76;98990.09;5062765;28;20021;-70
2021/08/02 01:51:55;;;;;;;13.70;4.35;;;;;;;13.13;82.49;98990.94;5062871;28;20094;-70
2021/08/02 01:54:20;;;;;;;9.48;3.63;;;;;;;13.15;82.48;98983.91;5064115;28;20025;-70
2021/08/02 01:56:51;;;;;;;12.55;4.55;;;;;;;13.14;82.20;98985.69;5063884;28;20055;-70
2021/08/02 01:59:20;;;;;;;8.98;3.33;;;;;;;13.16;82.21;98987.38;5063956;28;20087;-71
2021/08/02 02:01:57;;;;;;;11.25;4.43;;;;;;;13.17;82.16;98989.03;5062431;28;20483;-71
2021/08/02 02:04:29;;;;;;;9.63;4.20;;;;;;;13.19;82.09;98987.22;5063729;28;20084;-70
2021/08/02 02:06:58;;;;;;;18.88;4.82;;;;;;;13.17;82.02;98992.50;5063715;28;20036;-70
2021/08/02 02:09:24;;;;;;;14.05;4.45;;;;;;;13.18;82.10;98995.97;5063719;28;20083;-70
2021/08/02 02:11:51;;;;;;;12.10;4.05;;;;;;;13.17;82.04;98994.25;5062011;28;20051;-70
2021/08/02 02:14:18;;;;;;;7.68;4.45;;;;;;;13.13;81.85;98994.38;5063516;28;20032;-70
2021/08/02 02:16:47;;;;;;;11.27;4.40;;;;;;;13.09;82.13;98994.59;5063681;28;20105;-70
2021/08/02 02:19:14;;;;;;;12.18;3.80;;;;;;;13.04;81.86;98989.56;5062227;28;20032;-70
2021/08/02 02:21:43;;;;;;;11.63;4.43;;;;;;;12.97;81.71;98985.53;5063262;28;20013;-71
2021/08/02 02:24:09;;;;;;;13.55;4.40;;;;;;;12.93;81.92;98989.16;5062062;28;20024;-70
2021/08/02 02:26:35;;;;;;;15.70;4.75;;;;;;;12.84;81.88;98983.41;5063335;28;20134;-70
2021/08/02 02:29:03;;;;;;;17.55;5.03;;;;;;;12.84;82.01;98978.19;5063354;28;20052;-71
2021/08/02 02:31:29;;;;;;;15.77;4.95;;;;;;;12.82;81.83;98980.03;5063207;28;20025;-70
2021/08/02 02:33:58;;;;;;;11.15;4.70;;;;;;;12.80;82.01;98984.44;5061823;28;20035;-70
2021/08/02 02:36:25;;;;;;;13.45;5.80;;;;;;;12.75;82.21;98987.25;5061663;28;20048;-70
2021/08/02 02:38:51;;;;;;;11.50;5.07;;;;;;;12.70;82.01;98983.97;5062989;28;20052;-71
2021/08/02 02:41:20;;;;;;;15.30;5.28;;;;;;;12.71;82.21;98992.63;5063073;28;20029;-71
2021/08/02 02:43:48;;;;;;;15.18;5.20;;;;;;;12.72;82.16;98999.53;5063060;28;20021;-71
2021/08/02 02:46:16;;;;;;;19.30;5.30;;;;;;;12.68;82.38;99008.38;5063161;28;20025;-69
2021/08/02 02:48:43;;;;;;;19.40;5.45;;;;;;;12.63;82.43;99003.38;5062790;28;20032;-69
2021/08/02 02:51:10;;;;;;;19.10;5.68;;;;;;;12.62;82.29;99005.09;5063045;28;20052;-70
2021/08/02 02:53:36;;;;;;;19.90;5.88;;;;;;;12.58;82.44;99008.75;5061583;28;20048;-70
2021/08/02 02:56:08;;;;;;;16.27;5.63;;;;;;;12.60;82.46;99004.31;5062507;28;20079;-72
2021/08/02 02:58:33;;;;;;;;;;;;;;;12.59;82.02;99005.22;5063498;28;20028;-70
2021/08/02 03:00:59;;;;;;;16.60;5.40;;;;;;;12.54;82.33;99012.38;5062947;28;19908;-70
2021/08/02 03:03:26;;;;;;;12.68;5.25;;;;;;;12.51;82.42;99015.09;5061492;28;20017;-70
2021/08/02 03:05:52;;;;;;;14.82;5.22;;;;;;;12.48;82.58;99012.59;5062929;28;20405;-70
2021/08/02 03:08:21;;;;;;;14.30;5.30;;;;;;;12.47;82.46;99021.34;5063252;28;20029;-70
2021/08/02 03:10:49;;;;;;;20.00;5.65;;;;;;;12.45;82.60;99031.81;5062950;28;20059;-69
2021/08/02 03:13:14;;;;;;;15.27;5.45;;;;;;;12.41;82.55;99026.78;5063092;28;20021;-69
2021/08/02 03:15:40;;;;;;;17.58;5.85;;;;;;;12.35;82.45;99028.69;5062937;28;20036;-70
2021/08/02 03:18:05;;;;;;;17.02;5.68;;;;;;;12.37;82.45;99032.09;5062755;28;20025;-69
2021/08/02 03:20:30;;;;;;;18.15;6.03;;;;;;;12.34;82.49;99034.81;5062846;28;20055;-69
2021/08/02 03:23:09;;;;;;;11.38;4.97;;;;;;;12.33;82.52;99034.88;5062785;28;20025;-70
2021/08/02 03:25:48;;;;;;;14.27;5.50;;;;;;;12.34;82.44;99042.63;5062836;28;20021;-70
2021/08/02 03:28:35;;;;;;;16.17;5.32;;;;;;;12.34;82.54;99041.78;5062170;28;20033;-71
2021/08/02 03:31:03;;;;;;;17.75;6.00;;;;;;;12.29;82.66;99038.50;5061648;28;20318;-71
2021/08/02 03:33:35;;;;;;;19.15;6.40;;;;;;;12.36;82.39;99045.19;5062520;28;20017;-70
2021/08/02 03:36:04;;;;;;;10.38;4.90;;;;;;;12.39;82.78;99045.91;5061177;28;20028;-69
2021/08/02 03:38:31;;;;;;;9.80;5.13;;;;;;;12.60;83.56;99048.56;5062982;28;20052;-70
2021/08/02 03:40:57;;;;;;;16.45;4.45;;;;;;;12.77;83.67;99045.34;5062910;28;20025;-71
2021/08/02 03:43:23;;;;;;;8.02;3.67;;;;;;;12.99;83.96;99054.88;5062839;28;20017;-71
2021/08/02 03:45:51;;;;;;;11.52;3.65;;;;;;;13.11;83.87;99056.16;5062921;28;20055;-71
2021/08/02 03:48:20;;;;;;;8.15;3.92;;;;;;;13.25;83.70;99059.94;5061210;28;20036;-71
2021/08/02 03:50:46;;;;;;;6.43;3.13;;;;;;;13.31;83.70;99059.69;5062823;28;20321;-71
2021/08/02 03:53:11;;;;;;;10.43;3.38;;;;;;;13.41;83.66;99061.91;5061171;28;20029;-70
2021/08/02 03:55:37;;;;;;;6.85;2.75;;;;;;;13.47;83.11;99056.44;5062746;28;20462;-70
2021/08/02 03:58:06;;;;;;;5.35;2.50;;;;;;;13.68;83.52;99066.88;5062766;28;20021;-70
2021/08/02 04:00:32;;;;;;;6.72;2.35;;;;;;;14.10;84.46;99067.69;5062514;28;20063;-70
2021/08/02 04:02:57;;;;;;;7.60;2.40;;;;;;;14.58;84.72;99065.53;5062366;28;20473;-70
2021/08/02 04:05:23;;;;;;;4.07;1.80;;;;;;;15.16;84.17;99072.44;5062460;28;20059;-70
2021/08/02 04:07:48;;;;;;;5.50;2.60;;;;;;;15.67;83.58;99082.97;5064084;28;20079;-70
2021/08/02 04:10:14;;;;;;;3.95;2.38;;;;;;;16.08;82.02;99081.78;5066068;28;20057;-69
2021/08/02 04:12:40;;;;;;;5.35;2.28;;;;;;;16.53;81.49;99088.19;5066053;28;20029;-69
2021/08/02 04:15:08;;;;;;;6.18;2.28;;;;;;;16.97;80.46;99082.25;5065820;28;20040;-69
2021/08/02 04:17:34;;;;;;;6.32;2.30;;;;;;;17.43;78.49;99082.31;5065670;28;20029;-69
2021/08/02 04:19:59;;;;;;;3.60;1.67;;;;;;;17.79;76.81;99086.34;5065871;28;20028;-68
2021/08/02 04:22:24;;;;;;;5.95;2.50;;;;;;;18.18;75.36;99083.19;5065897;28;20047;-69
2021/08/02 04:24:50;;;;;;;5.72;2.63;;;;;;;18.61;73.22;99091.97;5065905;28;20060;-68
2021/08/02 04:27:15;;;;;;;4.95;2.17;;;;;;;18.98;73.09;99089.59;5064306;28;20028;-69
2021/08/02 04:29:41;;;;;;;4.47;2.20;;;;;;;19.54;70.14;99101.78;5065787;28;20084;-69
2021/08/02 04:32:06;;;;;;;2.80;1.58;;;;;;;20.12;68.77;99108.47;5065531;28;20025;-70
2021/08/02 04:34:32;;;;;;;4.60;2.20;;;;;;;20.70;66.26;99104.47;5065605;28;20053;-69
2021/08/02 04:36:57;;;;;;;3.72;1.73;;;;;;;20.82;62.45;99102.72;5065390;28;20041;-70
2021/08/02 04:39:22;;;;;;;4.35;2.30;;;;;;;20.78;61.78;99109.19;5065702;28;20466;-69
2021/08/02 04:41:48;;;;;;;4.13;1.88;;;;;;;20.71;60.59;99114.06;5065815;28;20086;-71
2021/08/02 04:44:13;;;;;;;5.07;1.80;;;;;;;20.55;60.89;99109.88;5065584;28;20021;-68
2021/08/02 04:46:39;;;;;;;4.20;1.95;;;;;;;20.70;59.89;99112.38;5064058;28;20025;-68
2021/08/02 04:49:04;;;;;;;4.82;1.95;;;;;;;20.57;58.34;99112.41;5063942;28;20040;-68
2021/08/02 04:51:29;;;;;;;4.80;2.15;;;;;;;20.52;58.63;99117.16;5065289;28;20029;-68
2021/08/02 04:53:55;;;;;;;4.55;2.20;;;;;;;20.78;58.21;99123.19;5065444;28;20397;-69
2021/08/02 04:56:20;;;;;;;5.10;2.53;;;;;;;20.93;57.09;99123.94;5065268;28;20013;-68
2021/08/02 04:58:46;;;;;;;6.85;2.58;;;;;;;20.95;55.69;99128.25;5064131;28;20029;-68
2021/08/02 05:01:11;;;;;;;5.88;2.42;;;;;;;21.07;56.43;99127.34;5065063;28;20025;-68
2021/08/02 05:03:38;;;;;;;7.97;2.10;;;;;;;21.16;55.02;99126.69;5064994;28;20025;-68
2021/08/02 05:06:04;;;;;;;4.82;2.08;;;;;;;21.28;55.23;99130.19;5063652;28;20021;-69
2021/08/02 05:08:29;;;;;;;7.65;2.30;;;;;;;21.10;54.18;99142.13;5063744;28;20028;-69
2021/08/02 05:10:55;;;;;;;4.45;2.50;;;;;;;20.53;55.15;99151.31;5065035;28;20043;-69
2021/08/02 05:13:20;;;;;;;4.93;2.13;;;;;;;20.18;55.57;99142.31;5064914;28;20029;-70
2021/08/02 05:15:46;;;;;;;6.43;2.30;;;;;;;19.70;55.74;99134.97;5064725;28;20047;-70
2021/08/02 05:18:13;;;;;;;6.65;2.63;;;;;;;19.15;56.07;99145.56;5064625;28;20025;-70
2021/08/02 05:20:39;;;;;;;5.03;2.30;;;;;;;18.55;57.14;99148.38;5064926;28;20092;-69
2021/08/02 05:23:04;;;;;;;7.13;3.35;;;;;;;18.02;58.29;99147.13;5063523;28;20021;-69
2021/08/02 05:25:30;;;;;;;6.25;3.17;;;;;;;17.61;59.17;99153.88;5064894;28;20055;-69
2021/08/02 05:27:55;;;;;;;7.38;3.28;;;;;;;17.24;60.50;99162.09;5064703;28;20033;-70
2021/08/02 05:30:20;;;;;;;6.38;3.13;;;;;;;16.97;61.20;99154.78;5064644;28;20021;-69
2021/08/02 05:32:46;;;;;;;7.97;3.13;;;;;;;16.69;62.32;99162.38;5063195;28;20060;-69
2021/08/02 05:35:12;;;;;;;7.75;2.58;;;;;;;16.57;63.23;99163.06;5064335;28;20048;-69
2021/08/02 05:37:38;;;;;;;7.43;3.03;;;;;;;16.62;63.76;99157.56;5064362;28;20053;-69
2021/08/02 05:40:05;;;;;;;6.47;2.63;;;;;;;16.75;63.90;99163.00;5063197;28;20051;-69
2021/08/02 05:42:30;;;;;;;6.78;2.70;;;;;;;16.79;63.36;99167.97;5063116;28;20063;-70
2021/08/02 05:44:55;;;;;;;7.65;2.78;;;;;;;16.73;63.93;99166.56;5064342;28;20029;-68
2021/08/02 05:47:21;;;;;;;4.88;2.80;;;;;;;16.86;64.23;99168.50;5064131;28;20167;-69
2021/08/02 05:49:46;;;;;;;6.95;2.65;;;;;;;16.94;64.21;99161.06;5064296;28;20047;-67
2021/08/02 05:52:12;;;;;;;6.30;2.88;;;;;;;17.01;64.50;99164.19;5064202;28;20112;-68
2021/08/02 05:54:37;;;;;;;5.97;2.85;;;;;;;17.20;64.63;99174.50;5064406;28;20083;-68
2021/08/02 05:57:03;;;;;;;3.75;2.08;;;;;;;17.39;64.20;99181.38;5064434;28;20049;-68
2021/08/02 05:59:28;;;;;;;6.70;2.33;;;;;;;17.43;63.73;99163.66;5062792;28;20541;-70
2021/08/02 06:01:53;;;;;;;8.95;3.50;;;;;;;17.51;63.76;99166.69;5064076;28;20236;-69
2021/08/02 06:04:19;;;;;;;5.80;2.13;;;;;;;17.62;63.70;99178.38;5062629;28;20056;-69
2021/08/02 06:06:44;;;;;;;5.35;2.70;;;;;;;17.67;63.84;99184.16;5062811;28;20131;-69
2021/08/02 06:09:11;;;;;;;6.82;2.28;;;;;;;17.65;63.32;99189.50;5064096;28;20067;-68
2021/08/02 06:11:37;;;;;;;4.70;2.53;;;;;;;17.58;63.27;99189.03;5063982;28;20100;-69
2021/08/02 06:14:02;;;;;;;4.28;2.05;;;;;;;17.61;63.55;99187.16;5062489;28;20097;-69
2021/08/02 06:16:28;;;;;;;5.20;1.90;;;;;;;17.58;63.45;99183.78;5063960;28;20021;-68
2021/08/02 06:18:53;;;;;;;9.38;2.22;;;;;;;17.49;63.62;99188.72;5063773;28;20045;-68
2021/08/02 06:21:18;;;;;;;4.78;1.98;;;;;;;17.54;63.94;99191.94;5063709;28;20424;-69
2021/08/02 06:23:44;;;;;;;4.68;2.28;;;;;;;17.65;63.77;99183.44;5063732;28;20044;-68
2021/08/02 06:26:09;;;;;;;7.03;1.85;;;;;;;17.73;63.75;99188.22;5063878;28;20036;-68
2021/08/02 06:28:35;;;;;;;3.10;1.83;;;;;;;17.76;63.45;99190.69;5063758;28;20032;-69
2021/08/02 06:31:00;;;;;;;4.22;2.10;;;;;;;17.75;63.64;99195.06;5062914;28;20035;-69
2021/08/02 06:33:26;;;;;;;4.85;1.98;;;;;;;17.54;63.21;99203.25;5062237;28;20031;-68
2021/08/02 06:35:51;;;;;;;8.90;1.95;;;;;;;17.35;63.17;99213.94;5063406;28;20051;-68
2021/08/02 06:38:17;;;;;;;5.18;2.33;;;;;;;16.85;64.37;99206.97;5062031;28;20031;-69
2021/08/02 06:40:44;;;;;;;8.70;2.42;;;;;;;16.59;65.31;99221.47;5063483;28;20047;-69
2021/08/02 06:43:09;;;;;;;9.63;2.85;;;;;;;16.43;65.65;99219.66;5063533;28;20094;-69
2021/08/02 06:45:34;;;;;;;9.77;2.60;;;;;;;16.20;66.32;99226.06;5063326;28;20473;-69
2021/08/02 06:48:00;;;;;;;5.60;2.70;;;;;;;15.98;66.84;99227.16;5063327;28;20469;-69
2021/08/02 06:50:25;;;;;;;9.35;3.17;;;;;;;15.85;67.10;99225.13;5063400;28;20017;-69
2021/08/02 06:52:52;;;;;;;7.93;2.78;;;;;;;15.67;67.56;99234.69;5063503;28;20029;-69
2021/08/02 06:55:18;;;;;;;6.90;2.92;;;;;;;15.63;68.62;99232.31;5063170;28;20028;-69
2021/08/02 06:57:43;;;;;;;6.88;2.75;;;;;;;15.57;68.66;99226.47;5063255;28;20043;-68
2021/08/02 07:00:09;;;;;;;8.57;3.20;;;;;;;15.53;68.51;99240.59;5063245;28;20067;-66
2021/08/02 07:02:34;;;;;;;4.85;2.95;;;;;;;15.37;68.81;99250.94;5061693;28;20133;-67
2021/08/02 07:05:00;;;;;;;5.32;3.03;;;;;;;15.32;69.35;99256.41;5063031;28;20016;-67
2021/08/02 07:07:25;;;;;;;3.28;2.45;;;;;;;15.32;69.77;99253.78;5062026;28;20092;-67
2021/08/02 07:09:50;;;;;;;6.25;3.30;;;;;;;15.65;70.85;99264.50;5062086;28;20039;-68
2021/08/02 07:12:16;;;;;;;7.45;3.20;;;;;;;15.97;69.30;99251.59;5062953;28;20021;-68
2021/08/02 07:14:41;;;;;;;7.05;3.00;;;;;;;15.97;67.94;99280.41;5063082;28;20020;-64
2021/08/02 07:17:07;;;;;;;5.47;3.33;;;;;;;15.88;67.77;99276.44;5063037;28;20061;-62
2021/08/02 07:19:32;;;;;;;7.43;3.47;;;;;;;15.89;67.85;99282.53;5061681;28;20101;-65
2021/08/02 07:21:57;;;;;;;6.88;3.30;;;;;;;15.88;67.64;99270.38;5061379;28;20028;-65
2021/08/02 07:24:23;;;;;;;4.13;3.30;;;;;;;15.91;67.41;99284.16;5061566;28;20457;-65
2021/08/02 07:26:48;;;;;;;11.15;3.55;;;;;;;15.74;66.79;99287.59;5062763;28;20017;-65
2021/08/02 07:29:13;;;;;;;6.72;3.35;;;;;;;15.54;67.31;99285.94;5061901;28;20071;-66
2021/08/02 07:31:39;;;;;;;6.50;3.53;;;;;;;15.50;67.70;99290.44;5061802;28;20049;-64
2021/08/02 07:34:04;;;;;;;7.03;3.58;;;;;;;15.49;67.96;99288.75;5062860;28;20532;-64
2021/08/02 07:36:30;;;;;;;6.18;3.28;;;;;;;15.69;67.68;99285.19;5062746;28;20049;-66
2021/08/02 07:38:55;;;;;;;7.97;3.03;;;;;;;15.99;67.39;99294.28;5062702;28;20025;-64
2021/08/02 07:41:20;;;;;;;7.00;2.95;;;;;;;16.23;66.66;99293.97;5063433;28;20275;-64
2021/08/02 07:43:46;;;;;;;5.57;2.67;;;;;;;16.38;65.90;99291.50;5066386;28;20104;-65
2021/08/02 07:46:15;;;;;;;4.85;3.00;;;;;;;16.51;65.32;99292.59;5066299;28;20024;-64
2021/08/02 07:48:40;;;;;;;5.60;2.67;;;;;;;16.65;64.70;99296.25;5064784;28;20365;-64
2021/08/02 07:51:06;;;;;;;6.20;2.83;;;;;;;16.65;64.27;99294.50;5065211;28;20021;-65
2021/08/02 07:53:31;;;;;;;5.53;2.65;;;;;;;16.64;64.35;99300.69;5066157;28;20024;-65
2021/08/02 07:55:57;;;;;;;5.47;2.67;;;;;;;16.73;64.21;99305.44;5066289;28;20068;-66
2021/08/02 07:58:22;;;;;;;10.43;2.92;;;;;;;16.91;63.80;99315.03;5066118;28;20047;-65
2021/08/02 08:00:48;;;;;;;6.78;3.05;;;;;;;17.41;63.84;99312.44;5066286;28;20035;-64
2021/08/02 08:03:14;;;;;;;4.95;2.60;;;;;;;17.88;62.46;99325.63;5066230;28;20032;-67
2021/08/02 08:05:41;;;;;;;6.80;2.88;;;;;;;17.95;61.34;99312.09;5066102;28;20363;-66
2021/08/02 08:08:06;;;;;;;6.60;2.78;;;;;;;17.68;61.34;99325.81;5066115;28;20024;-66
2021/08/02 08:10:32;;;;;;;5.13;2.42;;;;;;;17.44;61.88;99325.41;5066114;28;20029;-66
2021/08/02 08:12:57;;;;;;;5.85;3.00;;;;;;;17.29;62.88;99322.66;5065908;28;20032;-66
2021/08/02 08:15:25;;;;;;;5.22;3.20;;;;;;;17.18;62.96;99328.50;5064542;28;20025;-66
2021/08/02 08:17:50;;;;;;;6.72;2.47;;;;;;;17.21;62.83;99322.22;5065978;28;20032;-66
2021/08/02 08:20:19;;;;;;;4.28;2.55;;;;;;;17.13;62.76;99317.41;5066077;28;20021;-64
2021/08/02 08:22:44;;;;;;;6.18;2.35;;;;;;;17.13;62.83;99330.50;5065796;28;20512;-63
2021/08/02 08:25:11;;;;;;;6.60;2.72;;;;;;;17.01;62.30;99328.50;5065977;28;20025;-63
2021/08/02 08:27:36;;;;;;;5.40;2.55;;;;;;;16.77;62.81;99334.97;5065542;28;20029;-63
2021/08/02 08:30:04;;;;;;;8.48;2.88;;;;;;;16.62;63.27;99330.50;5065470;28;20025;-63
2021/08/02 08:32:29;;;;;;;5.30;2.50;;;;;;;16.50;63.68;99330.22;5065453;28;20032;-63
2021/08/02 08:34:55;;;;;;;11.55;2.60;;;;;;;16.53;63.68;99335.28;5065511;28;20049;-70
2021/08/02 08:37:21;;;;;;;4.07;2.38;;;;;;;16.97;63.70;99333.06;5065511;28;20055;-68
2021/08/02 08:39:46;;;;;;;5.88;2.63;;;;;;;17.58;62.77;99346.47;5066106;28;20115;-68
2021/08/02 08:42:14;;;;;;;7.47;2.78;;;;;;;17.70;62.00;99344.09;5065830;28;20048;-71
2021/08/02 08:44:40;;;;;;;8.25;2.10;;;;;;;18.14;61.62;99336.47;5065367;28;20036;-64
2021/08/02 08:47:05;;;;;;;6.72;2.10;;;;;;;18.94;59.25;99341.44;5065207;28;20025;-70
2021/08/02 08:49:31;;;;;;;10.82;2.28;;;;;;;19.72;56.44;99324.44;5064758;28;20039;-68
2021/08/02 08:51:56;;;;;;;6.80;2.63;;;;;;;19.92;54.44;99345.06;5063575;28;20143;-68
2021/08/02 08:54:22;;;;;;;5.97;2.20;;;;;;;19.97;54.27;99342.13;5064598;28;20025;-68
2021/08/02 08:56:47;;;;;;;4.57;1.92;;;;;;;20.66;53.48;99330.59;5064865;28;20048;-68
2021/08/02 08:59:13;;;;;;;8.48;2.30;;;;;;;21.19;50.70;99331.44;5064826;28;20351;-74
2021/08/02 09:01:40;;;;;;;8.50;2.13;;;;;;;21.60;50.86;99347.94;5064708;28;20029;-69
2021/08/02 09:04:05;;;;;;;4.47;1.73;;;;;;;22.40;49.62;99347.47;5064839;28;20088;-69
2021/08/02 09:06:31;;;;;;;4.05;1.67;;;;;;;23.15;48.00;99344.47;5063399;28;20112;-68
2021/08/02 09:08:57;;;;;;;4.47;1.92;;;;;;;23.77;45.77;99334.31;5064784;28;20043;-69
2021/08/02 09:11:28;;;;;;;6.63;2.30;;;;;;;23.84;44.39;99357.66;5064721;28;20041;-68
2021/08/02 09:13:54;;;;;;;5.30;1.80;;;;;;;23.38;44.76;99348.00;5064703;28;20024;-69
2021/08/02 09:16:25;;;;;;;3.50;1.63;;;;;;;22.62;44.79;99362.59;5064531;28;20029;-69
2021/08/02 09:18:59;;;;;;;4.65;1.42;;;;;;;22.85;46.41;99361.78;5064303;28;20044;-69
2021/08/02 09:21:25;;;;;;;5.55;1.48;;;;;;;23.45;43.79;99352.81;5064535;28;20108;-69
2021/08/02 09:23:53;;;;;;;3.45;1.70;;;;;;;23.81;42.52;99357.91;5064382;28;20044;-69
2021/08/02 09:26:49;;;;;;;3.78;1.52;;;;;;;24.05;41.92;99360.38;5064310;28;20056;-68
2021/08/02 09:29:20;;;;;;;3.40;1.42;;;;;;;23.92;40.85;99357.88;5054673;28;20056;-69
2021/08/02 09:31:48;;;;;;;;;;;;;;;23.25;42.29;99356.03;5064709;28;20029;-68
2021/08/02 09:34:13;;;;;;;3.22;1.70;;;;;;;22.53;43.33;99372.03;5064179;28;19915;-68
2021/08/02 09:36:44;;;;;;;4.97;2.38;;;;;;;21.86;44.40;99371.66;5064394;28;20049;-67
2021/08/02 09:39:15;;;;;;;4.07;1.80;;;;;;;21.87;46.27;99373.31;5064263;28;20021;-67
2021/08/02 09:41:42;;;;;;;8.15;1.77;;;;;;;23.15;45.90;99368.31;5064193;28;20250;-68
2021/08/02 09:44:21;;;;;;;4.35;1.85;;;;;;;24.53;41.89;99363.53;5064242;28;20037;-65
2021/08/02 09:47:02;;;;;;;4.30;1.85;;;;;;;25.66;41.13;99364.63;5064235;28;20025;-68
2021/08/02 09:49:44;;;;;;;4.25;1.80;;;;;;;26.36;38.81;99361.06;5063917;28;20086;-71
2021/08/02 09:52:10;;;;;;;7.07;2.20;;;;;;;27.24;38.53;99363.69;5064287;28;20108;-67
2021/08/02 09:54:35;;;;;;;3.75;1.65;;;;;;;28.05;35.15;99364.72;5064129;28;20055;-69
2021/08/02 09:57:01;;;;;;;4.82;1.77;;;;;;;28.13;34.28;99377.28;5062794;28;20128;-69
2021/08/02 09:59:27;;;;;;;3.25;1.40;;;;;;;27.42;34.49;99369.88;5063840;28;20036;-69
2021/08/02 10:01:54;;;;;;;2.55;1.40;;;;;;;26.59;34.43;99371.41;5064004;28;20021;-68
2021/08/02 10:04:21;;;;;;;2.53;1.40;;;;;;;25.70;37.27;99374.03;5061850;28;20093;-69
2021/08/02 10:06:47;;;;;;;3.90;1.70;;;;;;;25.02;38.65;99391.38;5061922;28;20028;-68
2021/08/02 10:09:13;;;;;;;3.63;1.67;;;;;;;24.37;38.96;99383.41;5063688;28;20021;-68
2021/08/02 10:11:41;;;;;;;4.03;1.83;;;;;;;23.45;41.26;99388.06;5063911;28;20025;-68
2021/08/02 10:14:07;;;;;;;3.63;1.60;;;;;;;22.70;43.34;99395.56;5063509;28;20445;-68
2021/08/02 10:16:36;;;;;;;3.47;1.60;;;;;;;22.02;45.82;99400.44;5063751;28;20296;-68
2021/08/02 10:19:11;;;;;;;3.38;1.50;;;;;;;21.41;47.08;99399.41;5062044;28;20048;-68
2021/08/02 10:21:45;;;;;;;5.10;1.58;;;;;;;21.02;49.33;99412.63;5063498;28;20017;-67
2021/08/02 10:24:13;;;;;;;3.30;1.50;;;;;;;20.78;50.45;99418.56;5063480;28;20033;-67
2021/08/02 10:26:40;;;;;;;5.65;1.85;;;;;;;20.53;51.57;99396.50;5063556;28;20489;-70
2021/08/02 10:29:07;;;;;;;3.22;1.27;;;;;;;20.70;51.00;99410.34;5062096;28;20539;-69
2021/08/02 10:31:55;;;;;;;4.00;1.40;;;;;;;20.59;50.79;99420.78;5063504;28;20021;-68
2021/08/02 10:34:23;;;;;;;2.05;1.35;;;;;;;20.37;50.73;99425.66;5063199;28;20156;-68
2021/08/02 10:37:05;;;;;;;3.30;1.25;;;;;;;19.99;50.29;99421.91;5062826;28;20100;-69
2021/08/02 10:39:33;;;;;;;2.47;1.67;;;;;;;19.57;51.77;99421.88;5063131;28;20028;-69
2021/08/02 10:42:12;;;;;;;5.50;1.73;;;;;;;19.41;53.25;99430.72;5061782;28;20024;-69
2021/08/02 10:44:37;;;;;;;5.45;2.05;;;;;;;19.57;53.20;99435.88;5063026;28;20032;-69
2021/08/02 10:47:05;;;;;;;1.92;1.20;;;;;;;19.82;53.39;99434.34;5061995;28;20393;-69
2021/08/02 10:49:31;;;;;;;3.17;1.25;;;;;;;20.28;52.63;99434.16;5063095;28;20044;-70
2021/08/02 10:51:57;;;;;;;4.18;1.77;;;;;;;20.86;51.97;99436.53;5063071;28;20025;-69
2021/08/02 10:54:24;;;;;;;2.42;1.48;;;;;;;21.54;50.14;99440.78;5063124;28;20078;-69
2021/08/02 10:56:51;;;;;;;2.10;1.27;;;;;;;21.87;49.20;99436.72;5063060;28;20021;-69
2021/08/02 10:59:18;;;;;;;3.00;1.20;;;;;;;22.04;48.18;99438.16;5063015;28;20379;-69
2021/08/02 11:01:49;;;;;;;2.35;1.30;;;;;;;21.92;47.77;99441.69;5063059;28;20031;-69
2021/08/02 11:04:21;;;;;;;3.47;1.43;;;;;;;21.77;48.35;99441.81;5061496;28;20024;-68
2021/08/02 11:06:48;;;;;;;2.47;1.13;;;;;;;21.42;48.89;99448.59;5062338;28;20048;-70
2021/08/02 11:09:14;;;;;;;2.45;1.20;;;;;;;21.16;47.65;99459.19;5061653;28;20094;-70
2021/08/02 11:11:40;;;;;;;2.58;1.20;;;;;;;21.12;48.66;99462.97;5062729;28;20454;-69
2021/08/02 11:14:10;;;;;;;20.25;4.90;;;;;;;21.47;50.23;99445.66;5062836;28;20025;-71
2021/08/02 11:16:52;;;;;;;6.57;2.00;;;;;;;22.26;48.22;99463.03;5064367;28;20040;-70
2021/08/02 11:19:29;;;;;;;2.42;1.02;;;;;;;22.44;46.21;99465.28;5066847;28;20036;-67
2021/08/02 11:22:06;;;;;;;1.60;0.90;;;;;;;21.95;45.69;99475.81;5065513;28;20036;-67
2021/08/02 11:24:34;;;;;;;4.85;1.30;;;;;;;21.51;47.65;99473.53;5066946;28;20021;-73
2021/08/02 11:27:01;;;;;;;2.30;0.93;;;;;;;21.20;47.90;99465.09;5065080;28;20100;-76
2021/08/02 11:29:28;;;;;;;5.32;1.40;;;;;;;21.08;49.18;99479.13;5066031;28;20017;-74
2021/08/02 11:32:04;;;;;;;3.25;0.85;;;;;;;20.99;49.24;99465.59;5066130;28;20025;-75
2021/08/02 11:34:30;;;;;;;3.38;1.20;;;;;;;20.99;48.83;99478.78;5066677;28;20021;-75